Sukran C — 3EAQ7 — position and weather

sailwx.info

Track history (hours):
 
Tides and Currents Weather Stations Pressure Air Temp Water Temp Dewpoint Dewpoint Depression Visibility Wind Speed Wind Dir Waves Ship Positions

Sukran C

Last reported at 2018-Aug-14 18:02 UTC. Time now 2018-Aug-14 19:28 UTC.
Position N 47°17' W 002°12'.

Length 97 m; draft 5.6 m.

Type: Tanker. MMSI: 374558000.

Date/timePositionNaut miles runAvg speedWind from/ knotsBaromVisibWave heightAir tempDewpointWater temp
2018-Aug-14 18:02N 47°17' W 002°12'7 4.3
2018-Aug-14 16:22N 47°11' W 002°18'5 9.8
2018-Aug-14 15:52N 47°07' W 002°22'1 3.2
2018-Aug-14 15:24N 47°06' W 002°23'3 5.9
2018-Aug-14 14:59N 47°04' W 002°27'17 7.9
2018-Aug-14 12:52N 47°06' W 002°51'5 9.2
2018-Aug-14 12:21N 47°07' W 002°58'310.4
2018-Aug-14 12:00N 47°08' W 003°03'510.0
2018-Aug-14 11:30N 47°09' W 003°10'510.1
2018-Aug-14 11:01N 47°10' W 003°17'510.2
2018-Aug-14 10:31N 47°13' W 003°24'5 9.4
2018-Aug-14 10:01N 47°17' W 003°26'5 9.3
2018-Aug-14 09:31N 47°20' W 003°32'510.0
2018-Aug-14 09:01N 47°23' W 003°38'5 9.8
2018-Aug-14 08:31N 47°25' W 003°44'5 9.7
2018-Aug-14 08:01N 47°28' W 003°50'5 9.9
2018-Aug-14 07:29N 47°30' W 003°57'3510.0
2018-Aug-14 03:58N 47°46' W 004°44'4 9.3
2018-Aug-14 03:30N 47°49' W 004°48'4 8.7
2018-Aug-14 03:01N 47°52' W 004°52'4 7.8
2018-Aug-14 02:30N 47°55' W 004°57'4 7.6
2018-Aug-14 02:00N 47°57' W 005°02'4 8.1
2018-Aug-14 01:27N 47°59' W 005°08'11 8.9
2018-Aug-14 00:11N 48°06' W 005°21'210.5
2018-Aug-14 00:00N 48°08' W 005°23'125 6.9
2018-Aug-13 05:58N 49°47' W 003°26'4 8.5
2018-Aug-13 05:30N 49°49' W 003°21'5 9.2
2018-Aug-13 05:00N 49°51' W 003°15'1110.3
2018-Aug-13 03:58N 49°57' W 003°01'511.6
2018-Aug-13 03:30N 49°60' W 002°54'612.4
2018-Aug-13 03:00N 50°02' W 002°44'612.9
2018-Aug-13 02:30N 50°03' W 002°35'66 8.4
2018-Aug-12 18:41N 50°20' W 000°55'2 9.1
2018-Aug-12 18:26N 50°21' W 000°52'3711.0
2018-Aug-12 15:04N 50°31' E 000°04'1510.9
2018-Aug-12 13:44N 50°36' E 000°26'210.1
2018-Aug-12 13:30N 50°36' E 000°29'5 9.7
2018-Aug-12 13:01N 50°38' E 000°36'5 9.4
2018-Aug-12 12:31N 50°41' E 000°42'4 9.0
2018-Aug-12 12:01N 50°43' E 000°48'4 8.6
2018-Aug-12 11:31N 50°46' E 000°53'4 8.4
2018-Aug-12 11:01N 50°49' E 000°58'4 8.5
2018-Aug-12 10:30N 50°52' E 001°04'4 8.8
2018-Aug-12 10:01N 50°55' E 001°09'5 9.5
2018-Aug-12 09:30N 50°58' E 001°14'610.9
2018-Aug-12 09:00N 51°01' E 001°21'510.3
2018-Aug-12 08:31N 51°04' E 001°28'612.7
2018-Aug-12 08:00N 51°08' E 001°36'612.9
2018-Aug-12 07:30N 51°12' E 001°44'612.3
2018-Aug-12 07:00N 51°17' E 001°48'611.3
2018-Aug-12 06:30N 51°23' E 001°52'510.3
2018-Aug-12 06:01N 51°27' E 001°56'5 9.2
2018-Aug-12 05:30N 51°31' E 001°60'4 8.5
2018-Aug-12 05:01N 51°34' E 002°04'4 8.3
2018-Aug-12 04:31N 51°37' E 002°09'4 7.8
2018-Aug-12 04:00N 51°40' E 002°13'4 7.5
2018-Aug-12 03:30N 51°43' E 002°18'4 7.4
2018-Aug-12 02:59N 51°46' E 002°21'3 7.4
2018-Aug-12 02:31N 51°48' E 002°25'4 7.3
2018-Aug-12 02:00N 51°51' E 002°29'26 7.9
2018-Aug-11 22:40N 52°03' E 003°07'2 9.9
2018-Aug-11 22:28N 52°03' E 003°11'510.0
2018-Aug-11 21:57N 52°03' E 003°19'510.2
2018-Aug-11 21:30N 52°03' E 003°26'510.4
2018-Aug-11 20:59N 52°04' E 003°35'510.3
2018-Aug-11 20:29N 52°04' E 003°44'510.2
2018-Aug-11 20:00N 52°03' E 003°51'5 9.3
2018-Aug-11 19:31N 52°01' E 003°58'612.1
2018-Aug-11 19:01N 51°59' E 004°07'713.1
2018-Aug-11 18:30N 51°54' E 004°16'4 7.6
2018-Aug-11 18:00N 51°54' E 004°22'0 0.0
2018-Aug-11 17:30N 51°54' E 004°22'0 0.0
2018-Aug-11 17:00N 51°54' E 004°22'0 0.0
2018-Aug-11 16:27N 51°54' E 004°22'0 0.0
2018-Aug-11 16:00N 51°54' E 004°22'0 0.0
2018-Aug-11 15:30N 51°54' E 004°22'0 0.0
2018-Aug-11 14:57N 51°54' E 004°22'0 0.0
2018-Aug-11 14:30N 51°54' E 004°22'0 0.0
2018-Aug-11 14:00N 51°54' E 004°22'0 0.0
2018-Aug-11 13:30N 51°54' E 004°22'0 0.0
2018-Aug-11 13:00N 51°54' E 004°22'0 0.0
2018-Aug-11 12:30N 51°54' E 004°22'0 0.0
2018-Aug-11 12:00N 51°54' E 004°22'0 0.0
2018-Aug-11 11:00N 51°54' E 004°22'0 0.0
2018-Aug-11 10:30N 51°54' E 004°22'0 0.0
2018-Aug-11 10:00N 51°54' E 004°22'0 0.0
2018-Aug-11 09:30N 51°54' E 004°22'0 0.0
2018-Aug-11 09:00N 51°54' E 004°22'0 0.0
2018-Aug-11 08:30N 51°54' E 004°22'0 0.0
2018-Aug-11 08:00N 51°54' E 004°22'0 0.0
2018-Aug-11 07:30N 51°54' E 004°22'0 0.0
2018-Aug-11 07:00N 51°54' E 004°22'0 0.0
2018-Aug-11 06:30N 51°54' E 004°22'0 0.0
2018-Aug-11 06:00N 51°54' E 004°22'0 0.0
2018-Aug-11 05:30N 51°54' E 004°22'0 0.0
2018-Aug-11 05:00N 51°54' E 004°22'0 0.0
2018-Aug-11 04:30N 51°54' E 004°22'0 0.0
2018-Aug-11 04:00N 51°54' E 004°22'0 0.0
2018-Aug-11 03:30N 51°54' E 004°22'0 0.0
2018-Aug-11 03:00N 51°54' E 004°22'0 0.0
2018-Aug-11 02:30N 51°54' E 004°22'0 0.0
2018-Aug-11 02:00N 51°54' E 004°22'0 0.0
2018-Aug-11 01:30N 51°54' E 004°22'0 0.0
2018-Aug-11 01:00N 51°54' E 004°22'0 0.0
2018-Aug-11 00:30N 51°54' E 004°22'0 0.0
2018-Aug-11 00:00N 51°54' E 004°22'0 0.0
2018-Aug-10 23:30N 51°54' E 004°22'0 0.0
2018-Aug-10 23:00N 51°54' E 004°22'0 0.0
2018-Aug-10 22:30N 51°54' E 004°22'0 0.0
2018-Aug-10 22:00N 51°54' E 004°22'0 0.0
2018-Aug-10 21:30N 51°54' E 004°22'0 0.0
2018-Aug-10 21:00N 51°54' E 004°22'0 0.0
2018-Aug-10 20:30N 51°54' E 004°22'0 0.0
2018-Aug-10 20:00N 51°54' E 004°22'0 0.0
2018-Aug-10 19:30N 51°54' E 004°22'0 0.0
2018-Aug-10 19:00N 51°54' E 004°22'0 0.0
2018-Aug-10 18:30N 51°54' E 004°22'0 0.0
2018-Aug-10 18:00N 51°54' E 004°22'0 0.0
2018-Aug-10 17:30N 51°54' E 004°22'0 0.0
2018-Aug-10 17:00N 51°54' E 004°22'0 0.0
2018-Aug-10 16:30N 51°54' E 004°22'0 0.0
2018-Aug-10 16:00N 51°54' E 004°22'0 0.0
2018-Aug-10 15:30N 51°54' E 004°22'0 0.0
2018-Aug-10 15:00N 51°54' E 004°22'0 0.0
2018-Aug-10 14:30N 51°54' E 004°22'0 0.0
2018-Aug-10 14:00N 51°54' E 004°22'0 0.0
2018-Aug-10 13:30N 51°54' E 004°22'0 0.0
2018-Aug-10 13:00N 51°54' E 004°22'0 0.0
2018-Aug-10 12:30N 51°54' E 004°22'0 0.0
2018-Aug-10 12:00N 51°54' E 004°22'0 0.0
2018-Aug-10 11:30N 51°54' E 004°22'0 0.0
2018-Aug-10 11:00N 51°54' E 004°22'0 0.0
2018-Aug-10 10:30N 51°54' E 004°22'0 0.0
2018-Aug-10 10:00N 51°54' E 004°22'0 0.0
2018-Aug-10 09:30N 51°54' E 004°22'0 0.2
2018-Aug-10 09:00N 51°54' E 004°22'0 0.2
2018-Aug-10 08:30N 51°54' E 004°22'0 0.3
2018-Aug-10 08:00N 51°54' E 004°22'2 5.0
2018-Aug-10 07:30N 51°54' E 004°18'4 8.0
2018-Aug-10 07:00N 51°56' E 004°13'4 7.9
2018-Aug-10 06:30N 51°58' E 004°07'4 8.3
2018-Aug-10 06:00N 51°60' E 004°01'5 9.3
2018-Aug-10 05:30N 52°00' E 003°53'4 8.7
2018-Aug-10 05:00N 51°59' E 003°46'4 8.2
2018-Aug-10 04:30N 51°57' E 003°41'3 5.4
2018-Aug-10 04:00N 51°56' E 003°37'0 0.3
2018-Aug-10 03:16N 51°56' E 003°37'0 0.0
2018-Aug-10 02:37N 51°56' E 003°37'0 0.0
2018-Aug-10 01:34N 51°56' E 003°37'0 0.0
2018-Aug-10 01:16N 51°56' E 003°37'0 0.0
2018-Aug-10 00:52N 51°56' E 003°37'0 0.0
2018-Aug-10 00:28N 51°56' E 003°37'0 0.1
2018-Aug-09 23:34N 51°56' E 003°37'0 0.1
2018-Aug-09 19:19N 51°56' E 003°36'0 0.0
2018-Aug-09 18:52N 51°56' E 003°36'0 0.0
2018-Aug-09 16:07N 51°56' E 003°36'0 0.4
2018-Aug-09 15:57N 51°56' E 003°36'2 5.3
2018-Aug-09 15:30N 51°57' E 003°33'5 9.3
2018-Aug-09 14:59N 51°56' E 003°25'39 9.9
2018-Aug-09 10:59N 51°39' E 002°28'510.7
2018-Aug-09 10:30N 51°35' E 002°22'510.6
2018-Aug-09 10:00N 51°30' E 002°17'510.0
2018-Aug-09 09:30N 51°26' E 002°13'510.0
2018-Aug-09 09:00N 51°21' E 002°10'5 9.9
2018-Aug-09 08:30N 51°17' E 002°06'5 9.7
2018-Aug-09 08:00N 51°13' E 002°02'5 9.3
2018-Aug-09 07:30N 51°11' E 001°56'4 8.8
2018-Aug-09 07:01N 51°09' E 001°49'4 8.3
2018-Aug-09 06:30N 51°06' E 001°45'4 7.8
2018-Aug-09 06:00N 51°03' E 001°41'4 7.3
2018-Aug-09 05:30N 50°60' E 001°37'4 7.2
2018-Aug-09 05:00N 50°57' E 001°33'3 7.0
2018-Aug-09 04:30N 50°54' E 001°30'4 7.1
2018-Aug-09 04:01N 50°51' E 001°28'4 7.7
2018-Aug-09 03:30N 50°47' E 001°27'6 7.8
2018-Aug-09 02:44N 50°42' E 001°21'2 8.6
2018-Aug-09 02:31N 50°41' E 001°19'4 8.7
2018-Aug-09 02:00N 50°38' E 001°14'4 8.9
2018-Aug-09 01:31N 50°36' E 001°08'5 9.0
2018-Aug-09 01:00N 50°33' E 001°03'5 9.0
2018-Aug-09 00:27N 50°30' E 000°56'4 9.2
2018-Aug-09 00:00N 50°29' E 000°50'5 9.2
2018-Aug-08 23:30N 50°28' E 000°43'6 9.2
2018-Aug-08 22:54N 50°26' E 000°34'4 9.3
2018-Aug-08 22:29N 50°25' E 000°29'5 9.4
2018-Aug-08 21:58N 50°24' E 000°21'261 8.4
2018-Aug-07 14:43N 48°02' W 005°14'15 7.5
2018-Aug-07 12:46N 47°54' W 004°56'3 8.8
2018-Aug-07 12:29N 47°53' W 004°53'5 9.1
2018-Aug-07 11:59N 47°50' W 004°47'8 9.1
2018-Aug-07 11:08N 47°46' W 004°37'28 9.5
2018-Aug-07 08:07N 47°32' W 004°00'4 9.7
2018-Aug-07 07:42N 47°30' W 003°55'3 9.7
2018-Aug-07 07:25N 47°29' W 003°52'4 9.7
2018-Aug-07 07:01N 47°27' W 003°47'5 9.7
2018-Aug-07 06:31N 47°24' W 003°41'5 9.5
2018-Aug-07 05:57N 47°21' W 003°35'5 9.5
2018-Aug-07 05:27N 47°18' W 003°28'610.7
2018-Aug-07 04:56N 47°15' W 003°21'4 8.2
2018-Aug-07 04:28N 47°14' W 003°17'4 9.4
2018-Aug-07 04:00N 47°11' W 003°11'5 9.8
2018-Aug-07 03:30N 47°09' W 003°05'5 9.9
2018-Aug-07 03:00N 47°07' W 002°58'610.3
2018-Aug-07 02:28N 47°06' W 002°50'510.4
2018-Aug-07 01:59N 47°05' W 002°43'510.1
2018-Aug-07 01:30N 47°04' W 002°36'5 9.8
2018-Aug-07 01:00N 47°04' W 002°29'510.3
2018-Aug-07 00:30N 47°07' W 002°23'5 9.1
2018-Aug-07 00:01N 47°10' W 002°18'5 9.9
2018-Aug-06 23:31N 47°15' W 002°15'2 4.2
2018-Aug-06 22:56N 47°16' W 002°12'0 0.9
2018-Aug-06 22:28N 47°17' W 002°12'0 0.0
2018-Aug-06 21:58N 47°17' W 002°12'0 0.0
2018-Aug-06 21:28N 47°17' W 002°12'0 0.0
2018-Aug-06 20:37N 47°17' W 002°12'0 0.0
2018-Aug-06 20:25N 47°17' W 002°12'0 0.0
2018-Aug-06 19:07N 47°17' W 002°12'0 0.0
2018-Aug-06 18:49N 47°17' W 002°12'0 0.0
2018-Aug-06 18:28N 47°17' W 002°12'0 0.0
2018-Aug-06 17:52N 47°17' W 002°12'0 0.0
2018-Aug-06 17:13N 47°17' W 002°12'0 0.0
2018-Aug-06 16:58N 47°17' W 002°12'0 0.0
2018-Aug-06 16:22N 47°17' W 002°12'0 0.0
2018-Aug-06 15:55N 47°17' W 002°12'0 0.0
2018-Aug-06 15:10N 47°17' W 002°12'0 0.0
2018-Aug-06 14:58N 47°17' W 002°12'0 0.0
2018-Aug-06 14:22N 47°17' W 002°12'0 0.0
2018-Aug-06 13:22N 47°17' W 002°12'0 0.0
2018-Aug-06 12:58N 47°17' W 002°12'0 0.0
2018-Aug-06 07:58N 47°17' W 002°12'0 0.0
2018-Aug-06 07:30N 47°17' W 002°12'0 0.0
2018-Aug-06 07:00N 47°17' W 002°12'0 0.0
2018-Aug-06 06:30N 47°17' W 002°12'0 0.0
2018-Aug-06 06:00N 47°17' W 002°12'0 0.0
2018-Aug-06 05:30N 47°17' W 002°12'0 0.0
2018-Aug-06 05:00N 47°17' W 002°12'0 0.0
2018-Aug-06 04:30N 47°17' W 002°12'0 0.0
2018-Aug-06 04:00N 47°17' W 002°12'0 0.0
2018-Aug-06 03:30N 47°17' W 002°12'0 0.0
2018-Aug-06 03:00N 47°17' W 002°12'0 0.0
2018-Aug-06 02:30N 47°17' W 002°12'0 0.0
2018-Aug-06 02:00N 47°17' W 002°12'0 0.0
2018-Aug-06 01:30N 47°17' W 002°12'0 0.0
2018-Aug-06 01:00N 47°17' W 002°12'0 0.0
2018-Aug-06 00:30N 47°17' W 002°12'0 0.0
2018-Aug-06 00:00N 47°17' W 002°12'0 0.0
2018-Aug-05 23:31N 47°17' W 002°12'0 0.0
2018-Aug-05 23:00N 47°17' W 002°12'0 0.0
2018-Aug-05 22:30N 47°17' W 002°12'0 0.0
2018-Aug-05 21:58N 47°17' W 002°12'0 0.0
2018-Aug-05 21:30N 47°17' W 002°12'0 0.8
2018-Aug-05 20:59N 47°16' W 002°12'0 0.2
2018-Aug-05 20:30N 47°16' W 002°12'3 6.0
2018-Aug-05 20:00N 47°14' W 002°15'510.5
2018-Aug-05 19:30N 47°10' W 002°19'4 7.4
2018-Aug-05 19:00N 47°07' W 002°22'2 4.4
2018-Aug-05 18:30N 47°05' W 002°25'3 6.0
2018-Aug-05 18:00N 47°04' W 002°29'3 6.3
2018-Aug-05 17:30N 47°03' W 002°33'4 7.8
2018-Aug-05 17:00N 47°03' W 002°39'5 9.7
2018-Aug-05 16:28N 47°05' W 002°46'510.1
2018-Aug-05 16:00N 47°06' W 002°53'510.4
2018-Aug-05 15:29N 47°07' W 003°00'510.5
2018-Aug-05 15:00N 47°08' W 003°08'1110.5
2018-Aug-05 14:00N 47°12' W 003°22'510.4
2018-Aug-05 13:30N 47°15' W 003°29'510.4
2018-Aug-05 13:00N 47°17' W 003°35'510.2
2018-Aug-05 12:30N 47°20' W 003°41'510.3
2018-Aug-05 12:00N 47°23' W 003°48'510.3
2018-Aug-05 11:30N 47°25' W 003°54'610.7
2018-Aug-05 10:58N 47°29' W 004°01'510.9
2018-Aug-05 10:30N 47°32' W 004°08'710.7
2018-Aug-05 09:49N 47°35' W 004°16'510.5
2018-Aug-05 09:21N 47°38' W 004°23'610.3
2018-Aug-05 08:45N 47°41' W 004°30'1310.4
2018-Aug-05 07:31N 47°49' W 004°46'0 9.8
2018-Aug-05 07:30N 47°49' W 004°46'5 9.9
2018-Aug-05 07:00N 47°52' W 004°52'5 9.8
2018-Aug-05 06:30N 47°54' W 004°59'5 9.9
2018-Aug-05 06:00N 47°57' W 005°05'6 9.1
2018-Aug-05 05:19N 48°01' W 005°12'3 9.4
2018-Aug-05 05:00N 48°03' W 005°15'711.1
2018-Aug-05 04:23N 48°08' W 005°23'510.6
2018-Aug-05 03:53N 48°10' W 005°30'510.9
2018-Aug-05 03:22N 48°14' W 005°36'3710.1
2018-Aug-04 23:44N 48°42' W 006°12'  
Track history (hours):
 
Tides and Currents Weather Stations Pressure Air Temp Water Temp Dewpoint Dewpoint Depression Visibility Wind Speed Wind Dir Waves Ship Positions

Sukran C

Last reported at 2018-Aug-14 18:02 UTC. Time now 2018-Aug-14 19:28 UTC.
Position N 47°17' W 002°12'.

Length 97 m; draft 5.6 m.

Type: Tanker. MMSI: 374558000.

Date/timePositionNaut miles runAvg speedWind from/ knotsBaromVisibWave heightAir tempDewpointWater temp
2018-Aug-14 18:02N 47°17' W 002°12'7 4.3
2018-Aug-14 16:22N 47°11' W 002°18'5 9.8
2018-Aug-14 15:52N 47°07' W 002°22'1 3.2
2018-Aug-14 15:24N 47°06' W 002°23'3 5.9
2018-Aug-14 14:59N 47°04' W 002°27'17 7.9
2018-Aug-14 12:52N 47°06' W 002°51'5 9.2
2018-Aug-14 12:21N 47°07' W 002°58'310.4
2018-Aug-14 12:00N 47°08' W 003°03'510.0
2018-Aug-14 11:30N 47°09' W 003°10'510.1
2018-Aug-14 11:01N 47°10' W 003°17'510.2
2018-Aug-14 10:31N 47°13' W 003°24'5 9.4
2018-Aug-14 10:01N 47°17' W 003°26'5 9.3
2018-Aug-14 09:31N 47°20' W 003°32'510.0
2018-Aug-14 09:01N 47°23' W 003°38'5 9.8
2018-Aug-14 08:31N 47°25' W 003°44'5 9.7
2018-Aug-14 08:01N 47°28' W 003°50'5 9.9
2018-Aug-14 07:29N 47°30' W 003°57'3510.0
2018-Aug-14 03:58N 47°46' W 004°44'4 9.3
2018-Aug-14 03:30N 47°49' W 004°48'4 8.7
2018-Aug-14 03:01N 47°52' W 004°52'4 7.8
2018-Aug-14 02:30N 47°55' W 004°57'4 7.6
2018-Aug-14 02:00N 47°57' W 005°02'4 8.1
2018-Aug-14 01:27N 47°59' W 005°08'11 8.9
2018-Aug-14 00:11N 48°06' W 005°21'210.5
2018-Aug-14 00:00N 48°08' W 005°23'125 6.9
2018-Aug-13 05:58N 49°47' W 003°26'4 8.5
2018-Aug-13 05:30N 49°49' W 003°21'5 9.2
2018-Aug-13 05:00N 49°51' W 003°15'1110.3
2018-Aug-13 03:58N 49°57' W 003°01'511.6
2018-Aug-13 03:30N 49°60' W 002°54'612.4
2018-Aug-13 03:00N 50°02' W 002°44'612.9
2018-Aug-13 02:30N 50°03' W 002°35'66 8.4
2018-Aug-12 18:41N 50°20' W 000°55'2 9.1
2018-Aug-12 18:26N 50°21' W 000°52'3711.0
2018-Aug-12 15:04N 50°31' E 000°04'1510.9
2018-Aug-12 13:44N 50°36' E 000°26'210.1
2018-Aug-12 13:30N 50°36' E 000°29'5 9.7
2018-Aug-12 13:01N 50°38' E 000°36'5 9.4
2018-Aug-12 12:31N 50°41' E 000°42'4 9.0
2018-Aug-12 12:01N 50°43' E 000°48'4 8.6
2018-Aug-12 11:31N 50°46' E 000°53'4 8.4
2018-Aug-12 11:01N 50°49' E 000°58'4 8.5
2018-Aug-12 10:30N 50°52' E 001°04'4 8.8
2018-Aug-12 10:01N 50°55' E 001°09'5 9.5
2018-Aug-12 09:30N 50°58' E 001°14'610.9
2018-Aug-12 09:00N 51°01' E 001°21'510.3
2018-Aug-12 08:31N 51°04' E 001°28'612.7
2018-Aug-12 08:00N 51°08' E 001°36'612.9
2018-Aug-12 07:30N 51°12' E 001°44'612.3
2018-Aug-12 07:00N 51°17' E 001°48'611.3
2018-Aug-12 06:30N 51°23' E 001°52'510.3
2018-Aug-12 06:01N 51°27' E 001°56'5 9.2
2018-Aug-12 05:30N 51°31' E 001°60'4 8.5
2018-Aug-12 05:01N 51°34' E 002°04'4 8.3
2018-Aug-12 04:31N 51°37' E 002°09'4 7.8
2018-Aug-12 04:00N 51°40' E 002°13'4 7.5
2018-Aug-12 03:30N 51°43' E 002°18'4 7.4
2018-Aug-12 02:59N 51°46' E 002°21'3 7.4
2018-Aug-12 02:31N 51°48' E 002°25'4 7.3
2018-Aug-12 02:00N 51°51' E 002°29'26 7.9
2018-Aug-11 22:40N 52°03' E 003°07'2 9.9
2018-Aug-11 22:28N 52°03' E 003°11'510.0
2018-Aug-11 21:57N 52°03' E 003°19'510.2
2018-Aug-11 21:30N 52°03' E 003°26'510.4
2018-Aug-11 20:59N 52°04' E 003°35'510.3
2018-Aug-11 20:29N 52°04' E 003°44'510.2
2018-Aug-11 20:00N 52°03' E 003°51'5 9.3
2018-Aug-11 19:31N 52°01' E 003°58'612.1
2018-Aug-11 19:01N 51°59' E 004°07'713.1
2018-Aug-11 18:30N 51°54' E 004°16'4 7.6
2018-Aug-11 18:00N 51°54' E 004°22'0 0.0
2018-Aug-11 17:30N 51°54' E 004°22'0 0.0
2018-Aug-11 17:00N 51°54' E 004°22'0 0.0
2018-Aug-11 16:27N 51°54' E 004°22'0 0.0
2018-Aug-11 16:00N 51°54' E 004°22'0 0.0
2018-Aug-11 15:30N 51°54' E 004°22'0 0.0
2018-Aug-11 14:57N 51°54' E 004°22'0 0.0
2018-Aug-11 14:30N 51°54' E 004°22'0 0.0
2018-Aug-11 14:00N 51°54' E 004°22'0 0.0
2018-Aug-11 13:30N 51°54' E 004°22'0 0.0
2018-Aug-11 13:00N 51°54' E 004°22'0 0.0
2018-Aug-11 12:30N 51°54' E 004°22'0 0.0
2018-Aug-11 12:00N 51°54' E 004°22'0 0.0
2018-Aug-11 11:00N 51°54' E 004°22'0 0.0
2018-Aug-11 10:30N 51°54' E 004°22'0 0.0
2018-Aug-11 10:00N 51°54' E 004°22'0 0.0
2018-Aug-11 09:30N 51°54' E 004°22'0 0.0
2018-Aug-11 09:00N 51°54' E 004°22'0 0.0
2018-Aug-11 08:30N 51°54' E 004°22'0 0.0
2018-Aug-11 08:00N 51°54' E 004°22'0 0.0
2018-Aug-11 07:30N 51°54' E 004°22'0 0.0
2018-Aug-11 07:00N 51°54' E 004°22'0 0.0
2018-Aug-11 06:30N 51°54' E 004°22'0 0.0
2018-Aug-11 06:00N 51°54' E 004°22'0 0.0
2018-Aug-11 05:30N 51°54' E 004°22'0 0.0
2018-Aug-11 05:00N 51°54' E 004°22'0 0.0
2018-Aug-11 04:30N 51°54' E 004°22'0 0.0
2018-Aug-11 04:00N 51°54' E 004°22'0 0.0
2018-Aug-11 03:30N 51°54' E 004°22'0 0.0
2018-Aug-11 03:00N 51°54' E 004°22'0 0.0
2018-Aug-11 02:30N 51°54' E 004°22'0 0.0
2018-Aug-11 02:00N 51°54' E 004°22'0 0.0
2018-Aug-11 01:30N 51°54' E 004°22'0 0.0
2018-Aug-11 01:00N 51°54' E 004°22'0 0.0
2018-Aug-11 00:30N 51°54' E 004°22'0 0.0
2018-Aug-11 00:00N 51°54' E 004°22'0 0.0
2018-Aug-10 23:30N 51°54' E 004°22'0 0.0
2018-Aug-10 23:00N 51°54' E 004°22'0 0.0
2018-Aug-10 22:30N 51°54' E 004°22'0 0.0
2018-Aug-10 22:00N 51°54' E 004°22'0 0.0
2018-Aug-10 21:30N 51°54' E 004°22'0 0.0
2018-Aug-10 21:00N 51°54' E 004°22'0 0.0
2018-Aug-10 20:30N 51°54' E 004°22'0 0.0
2018-Aug-10 20:00N 51°54' E 004°22'0 0.0
2018-Aug-10 19:30N 51°54' E 004°22'0 0.0
2018-Aug-10 19:00N 51°54' E 004°22'0 0.0
2018-Aug-10 18:30N 51°54' E 004°22'0 0.0
2018-Aug-10 18:00N 51°54' E 004°22'0 0.0
2018-Aug-10 17:30N 51°54' E 004°22'0 0.0
2018-Aug-10 17:00N 51°54' E 004°22'0 0.0
2018-Aug-10 16:30N 51°54' E 004°22'0 0.0
2018-Aug-10 16:00N 51°54' E 004°22'0 0.0
2018-Aug-10 15:30N 51°54' E 004°22'0 0.0
2018-Aug-10 15:00N 51°54' E 004°22'0 0.0
2018-Aug-10 14:30N 51°54' E 004°22'0 0.0
2018-Aug-10 14:00N 51°54' E 004°22'0 0.0
2018-Aug-10 13:30N 51°54' E 004°22'0 0.0
2018-Aug-10 13:00N 51°54' E 004°22'0 0.0
2018-Aug-10 12:30N 51°54' E 004°22'0 0.0
2018-Aug-10 12:00N 51°54' E 004°22'0 0.0
2018-Aug-10 11:30N 51°54' E 004°22'0 0.0
2018-Aug-10 11:00N 51°54' E 004°22'0 0.0
2018-Aug-10 10:30N 51°54' E 004°22'0 0.0
2018-Aug-10 10:00N 51°54' E 004°22'0 0.0
2018-Aug-10 09:30N 51°54' E 004°22'0 0.2
2018-Aug-10 09:00N 51°54' E 004°22'0 0.2
2018-Aug-10 08:30N 51°54' E 004°22'0 0.3
2018-Aug-10 08:00N 51°54' E 004°22'2 5.0
2018-Aug-10 07:30N 51°54' E 004°18'4 8.0
2018-Aug-10 07:00N 51°56' E 004°13'4 7.9
2018-Aug-10 06:30N 51°58' E 004°07'4 8.3
2018-Aug-10 06:00N 51°60' E 004°01'5 9.3
2018-Aug-10 05:30N 52°00' E 003°53'4 8.7
2018-Aug-10 05:00N 51°59' E 003°46'4 8.2
2018-Aug-10 04:30N 51°57' E 003°41'3 5.4
2018-Aug-10 04:00N 51°56' E 003°37'0 0.3
2018-Aug-10 03:16N 51°56' E 003°37'0 0.0
2018-Aug-10 02:37N 51°56' E 003°37'0 0.0
2018-Aug-10 01:34N 51°56' E 003°37'0 0.0
2018-Aug-10 01:16N 51°56' E 003°37'0 0.0
2018-Aug-10 00:52N 51°56' E 003°37'0 0.0
2018-Aug-10 00:28N 51°56' E 003°37'0 0.1
2018-Aug-09 23:34N 51°56' E 003°37'0 0.1
2018-Aug-09 19:19N 51°56' E 003°36'0 0.0
2018-Aug-09 18:52N 51°56' E 003°36'0 0.0
2018-Aug-09 16:07N 51°56' E 003°36'0 0.4
2018-Aug-09 15:57N 51°56' E 003°36'2 5.3
2018-Aug-09 15:30N 51°57' E 003°33'5 9.3
2018-Aug-09 14:59N 51°56' E 003°25'39 9.9
2018-Aug-09 10:59N 51°39' E 002°28'510.7
2018-Aug-09 10:30N 51°35' E 002°22'510.6
2018-Aug-09 10:00N 51°30' E 002°17'510.0
2018-Aug-09 09:30N 51°26' E 002°13'510.0
2018-Aug-09 09:00N 51°21' E 002°10'5 9.9
2018-Aug-09 08:30N 51°17' E 002°06'5 9.7
2018-Aug-09 08:00N 51°13' E 002°02'5 9.3
2018-Aug-09 07:30N 51°11' E 001°56'4 8.8
2018-Aug-09 07:01N 51°09' E 001°49'4 8.3
2018-Aug-09 06:30N 51°06' E 001°45'4 7.8
2018-Aug-09 06:00N 51°03' E 001°41'4 7.3
2018-Aug-09 05:30N 50°60' E 001°37'4 7.2
2018-Aug-09 05:00N 50°57' E 001°33'3 7.0
2018-Aug-09 04:30N 50°54' E 001°30'4 7.1
2018-Aug-09 04:01N 50°51' E 001°28'4 7.7
2018-Aug-09 03:30N 50°47' E 001°27'6 7.8
2018-Aug-09 02:44N 50°42' E 001°21'2 8.6
2018-Aug-09 02:31N 50°41' E 001°19'4 8.7
2018-Aug-09 02:00N 50°38' E 001°14'4 8.9
2018-Aug-09 01:31N 50°36' E 001°08'5 9.0
2018-Aug-09 01:00N 50°33' E 001°03'5 9.0
2018-Aug-09 00:27N 50°30' E 000°56'4 9.2
2018-Aug-09 00:00N 50°29' E 000°50'5 9.2
2018-Aug-08 23:30N 50°28' E 000°43'6 9.2
2018-Aug-08 22:54N 50°26' E 000°34'4 9.3
2018-Aug-08 22:29N 50°25' E 000°29'5 9.4
2018-Aug-08 21:58N 50°24' E 000°21'261 8.4
2018-Aug-07 14:43N 48°02' W 005°14'15 7.5
2018-Aug-07 12:46N 47°54' W 004°56'3 8.8
2018-Aug-07 12:29N 47°53' W 004°53'5 9.1
2018-Aug-07 11:59N 47°50' W 004°47'8 9.1
2018-Aug-07 11:08N 47°46' W 004°37'28 9.5
2018-Aug-07 08:07N 47°32' W 004°00'4 9.7
2018-Aug-07 07:42N 47°30' W 003°55'3 9.7
2018-Aug-07 07:25N 47°29' W 003°52'4 9.7
2018-Aug-07 07:01N 47°27' W 003°47'5 9.7
2018-Aug-07 06:31N 47°24' W 003°41'5 9.5
2018-Aug-07 05:57N 47°21' W 003°35'5 9.5
2018-Aug-07 05:27N 47°18' W 003°28'610.7
2018-Aug-07 04:56N 47°15' W 003°21'4 8.2
2018-Aug-07 04:28N 47°14' W 003°17'4 9.4
2018-Aug-07 04:00N 47°11' W 003°11'5 9.8
2018-Aug-07 03:30N 47°09' W 003°05'5 9.9
2018-Aug-07 03:00N 47°07' W 002°58'610.3
2018-Aug-07 02:28N 47°06' W 002°50'510.4
2018-Aug-07 01:59N 47°05' W 002°43'510.1
2018-Aug-07 01:30N 47°04' W 002°36'5 9.8
2018-Aug-07 01:00N 47°04' W 002°29'510.3
2018-Aug-07 00:30N 47°07' W 002°23'5 9.1
2018-Aug-07 00:01N 47°10' W 002°18'5 9.9
2018-Aug-06 23:31N 47°15' W 002°15'2 4.2
2018-Aug-06 22:56N 47°16' W 002°12'0 0.9
2018-Aug-06 22:28N 47°17' W 002°12'0 0.0
2018-Aug-06 21:58N 47°17' W 002°12'0 0.0
2018-Aug-06 21:28N 47°17' W 002°12'0 0.0
2018-Aug-06 20:37N 47°17' W 002°12'0 0.0
2018-Aug-06 20:25N 47°17' W 002°12'0 0.0
2018-Aug-06 19:07N 47°17' W 002°12'0 0.0
2018-Aug-06 18:49N 47°17' W 002°12'0 0.0
2018-Aug-06 18:28N 47°17' W 002°12'0 0.0
2018-Aug-06 17:52N 47°17' W 002°12'0 0.0
2018-Aug-06 17:13N 47°17' W 002°12'0 0.0
2018-Aug-06 16:58N 47°17' W 002°12'0 0.0
2018-Aug-06 16:22N 47°17' W 002°12'0 0.0
2018-Aug-06 15:55N 47°17' W 002°12'0 0.0
2018-Aug-06 15:10N 47°17' W 002°12'0 0.0
2018-Aug-06 14:58N 47°17' W 002°12'0 0.0
2018-Aug-06 14:22N 47°17' W 002°12'0 0.0
2018-Aug-06 13:22N 47°17' W 002°12'0 0.0
2018-Aug-06 12:58N 47°17' W 002°12'0 0.0
2018-Aug-06 07:58N 47°17' W 002°12'0 0.0
2018-Aug-06 07:30N 47°17' W 002°12'0 0.0
2018-Aug-06 07:00N 47°17' W 002°12'0 0.0
2018-Aug-06 06:30N 47°17' W 002°12'0 0.0
2018-Aug-06 06:00N 47°17' W 002°12'0 0.0
2018-Aug-06 05:30N 47°17' W 002°12'0 0.0
2018-Aug-06 05:00N 47°17' W 002°12'0 0.0
2018-Aug-06 04:30N 47°17' W 002°12'0 0.0
2018-Aug-06 04:00N 47°17' W 002°12'0 0.0
2018-Aug-06 03:30N 47°17' W 002°12'0 0.0
2018-Aug-06 03:00N 47°17' W 002°12'0 0.0
2018-Aug-06 02:30N 47°17' W 002°12'0 0.0
2018-Aug-06 02:00N 47°17' W 002°12'0 0.0
2018-Aug-06 01:30N 47°17' W 002°12'0 0.0
2018-Aug-06 01:00N 47°17' W 002°12'0 0.0
2018-Aug-06 00:30N 47°17' W 002°12'0 0.0
2018-Aug-06 00:00N 47°17' W 002°12'0 0.0
2018-Aug-05 23:31N 47°17' W 002°12'0 0.0
2018-Aug-05 23:00N 47°17' W 002°12'0 0.0
2018-Aug-05 22:30N 47°17' W 002°12'0 0.0
2018-Aug-05 21:58N 47°17' W 002°12'0 0.0
2018-Aug-05 21:30N 47°17' W 002°12'0 0.8
2018-Aug-05 20:59N 47°16' W 002°12'0 0.2
2018-Aug-05 20:30N 47°16' W 002°12'3 6.0
2018-Aug-05 20:00N 47°14' W 002°15'510.5
2018-Aug-05 19:30N 47°10' W 002°19'4 7.4
2018-Aug-05 19:00N 47°07' W 002°22'2 4.4
2018-Aug-05 18:30N 47°05' W 002°25'3 6.0
2018-Aug-05 18:00N 47°04' W 002°29'3 6.3
2018-Aug-05 17:30N 47°03' W 002°33'4 7.8
2018-Aug-05 17:00N 47°03' W 002°39'5 9.7
2018-Aug-05 16:28N 47°05' W 002°46'510.1
2018-Aug-05 16:00N 47°06' W 002°53'510.4
2018-Aug-05 15:29N 47°07' W 003°00'510.5
2018-Aug-05 15:00N 47°08' W 003°08'1110.5
2018-Aug-05 14:00N 47°12' W 003°22'510.4
2018-Aug-05 13:30N 47°15' W 003°29'510.4
2018-Aug-05 13:00N 47°17' W 003°35'510.2
2018-Aug-05 12:30N 47°20' W 003°41'510.3
2018-Aug-05 12:00N 47°23' W 003°48'510.3
2018-Aug-05 11:30N 47°25' W 003°54'610.7
2018-Aug-05 10:58N 47°29' W 004°01'510.9
2018-Aug-05 10:30N 47°32' W 004°08'710.7
2018-Aug-05 09:49N 47°35' W 004°16'510.5
2018-Aug-05 09:21N 47°38' W 004°23'610.3
2018-Aug-05 08:45N 47°41' W 004°30'1310.4
2018-Aug-05 07:31N 47°49' W 004°46'0 9.8
2018-Aug-05 07:30N 47°49' W 004°46'5 9.9
2018-Aug-05 07:00N 47°52' W 004°52'5 9.8
2018-Aug-05 06:30N 47°54' W 004°59'5 9.9
2018-Aug-05 06:00N 47°57' W 005°05'6 9.1
2018-Aug-05 05:19N 48°01' W 005°12'3 9.4
2018-Aug-05 05:00N 48°03' W 005°15'711.1
2018-Aug-05 04:23N 48°08' W 005°23'510.6
2018-Aug-05 03:53N 48°10' W 005°30'510.9
2018-Aug-05 03:22N 48°14' W 005°36'3710.1
2018-Aug-04 23:44N 48°42' W 006°12'  

Dump ship's entire track history